createdAt,value
2018-05-17T00:02:19.237Z,14.20
2018-05-17T00:04:46.266Z,16.37
2018-05-17T00:07:12.582Z,16.37
2018-05-17T00:09:38.864Z,14.80
2018-05-17T00:12:05.169Z,14.60
2018-05-17T00:14:31.474Z,14.07
2018-05-17T00:16:57.821Z,15.50
2018-05-17T00:19:24.114Z,15.98
2018-05-17T00:21:50.453Z,16.23
2018-05-17T00:24:16.745Z,14.93
2018-05-17T00:26:43.082Z,14.93
2018-05-17T00:29:09.373Z,14.27
2018-05-17T00:31:35.704Z,15.18
2018-05-17T00:34:01.993Z,15.85
2018-05-17T00:36:28.296Z,15.65
2018-05-17T00:38:54.568Z,15.55
2018-05-17T00:41:21.108Z,17.35
2018-05-17T00:43:47.425Z,15.02
2018-05-17T00:46:13.753Z,18.00
2018-05-17T00:48:40.071Z,15.70
2018-05-17T00:51:06.397Z,16.17
2018-05-17T00:53:32.695Z,15.30
2018-05-17T00:56:00.796Z,17.25
2018-05-17T00:58:27.100Z,14.77
2018-05-17T01:00:54.176Z,16.60
2018-05-17T01:03:20.470Z,15.80
2018-05-17T01:05:48.537Z,17.02
2018-05-17T01:08:15.560Z,16.75
2018-05-17T01:10:41.894Z,17.37
2018-05-17T01:13:08.198Z,17.27
2018-05-17T01:15:34.527Z,17.33
2018-05-17T01:18:00.812Z,16.83
2018-05-17T01:20:27.880Z,17.85
2018-05-17T01:22:54.174Z,14.07
2018-05-17T01:25:20.473Z,12.95
2018-05-17T01:27:46.810Z,13.57
2018-05-17T01:30:13.117Z,12.95
2018-05-17T01:32:39.405Z,13.15
2018-05-17T01:35:06.473Z,12.05
2018-05-17T01:37:45.047Z,11.27
2018-05-17T01:40:11.362Z,13.43
2018-05-17T01:42:37.644Z,14.35
2018-05-17T01:45:04.700Z,12.45
2018-05-17T01:47:31.026Z,13.23
2018-05-17T01:49:57.329Z,11.95
2018-05-17T01:52:23.824Z,11.30
2018-05-17T01:54:50.139Z,11.93
2018-05-17T01:57:16.420Z,13.00
2018-05-17T01:59:42.733Z,14.10
2018-05-17T02:02:09.026Z,13.90
2018-05-17T02:04:35.312Z,13.00
2018-05-17T02:07:01.598Z,12.32
2018-05-17T02:09:27.922Z,13.73
2018-05-17T02:11:54.205Z,13.88
2018-05-17T02:14:20.533Z,12.52
2018-05-17T02:16:46.825Z,14.15
2018-05-17T02:19:13.123Z,13.50
2018-05-17T02:21:39.409Z,15.93
2018-05-17T02:24:05.745Z,16.92
2018-05-17T02:26:32.790Z,16.35
2018-05-17T02:28:59.117Z,15.00
2018-05-17T02:31:25.393Z,16.95
2018-05-17T02:33:51.713Z,17.27
2018-05-17T02:36:18.748Z,17.77
2018-05-17T02:38:45.802Z,15.77
2018-05-17T02:41:12.838Z,17.85
2018-05-17T02:43:39.881Z,18.87
2018-05-17T02:46:06.176Z,19.83
2018-05-17T02:48:32.489Z,18.98
2018-05-17T02:50:58.772Z,18.23
2018-05-17T02:53:25.075Z,18.37
2018-05-17T02:55:51.372Z,15.30
2018-05-17T02:58:17.719Z,17.15
2018-05-17T03:00:44.015Z,15.93
2018-05-17T03:03:10.321Z,16.15
2018-05-17T03:05:37.365Z,16.92
2018-05-17T03:08:03.694Z,14.95
2018-05-17T03:10:29.981Z,14.27
2018-05-17T03:12:56.289Z,15.88
2018-05-17T03:15:22.593Z,14.35
2018-05-17T03:17:49.661Z,15.88
2018-05-17T03:20:16.684Z,14.18
2018-05-17T03:22:42.981Z,15.35
2018-05-17T03:25:09.405Z,15.20
2018-05-17T03:27:35.704Z,15.13
2018-05-17T03:30:02.022Z,15.63
2018-05-17T03:32:29.065Z,14.40
2018-05-17T03:34:56.099Z,14.90
2018-05-17T03:37:22.414Z,14.07
2018-05-17T03:39:48.728Z,12.82
2018-05-17T03:42:15.053Z,13.25
2018-05-17T03:44:41.336Z,15.57
2018-05-17T03:47:08.400Z,13.07
2018-05-17T03:49:34.693Z,13.55
2018-05-17T03:52:01.009Z,13.70
2018-05-17T03:54:27.333Z,12.00
2018-05-17T03:56:53.621Z,13.30
2018-05-17T03:59:19.916Z,12.30
2018-05-17T04:01:58.518Z,13.70
2018-05-17T04:04:37.133Z,12.52
2018-05-17T04:07:03.412Z,11.55
2018-05-17T04:09:29.718Z,12.90
2018-05-17T04:11:55.996Z,11.10
2018-05-17T04:14:22.321Z,11.77
2018-05-17T04:16:48.601Z,12.20
2018-05-17T04:19:14.910Z,10.80
2018-05-17T04:21:41.220Z,9.85
2018-05-17T04:24:07.520Z,9.35
2018-05-17T04:26:33.808Z,9.63
2018-05-17T04:29:00.125Z,11.15
2018-05-17T04:31:26.408Z,11.23
2018-05-17T04:33:53.717Z,12.23
2018-05-17T04:36:19.996Z,12.55
2018-05-17T04:38:46.291Z,11.73
2018-05-17T04:41:12.572Z,10.80
2018-05-17T04:43:38.885Z,9.77
2018-05-17T04:46:05.173Z,9.75
2018-05-17T04:48:31.480Z,10.30
2018-05-17T04:50:57.761Z,8.82
2018-05-17T04:53:24.804Z,9.27
2018-05-17T04:55:51.843Z,10.93
2018-05-17T04:58:18.884Z,8.40
2018-05-17T05:00:46.211Z,8.98
2018-05-17T05:03:12.518Z,8.82
2018-05-17T05:05:38.811Z,8.15
2018-05-17T05:08:05.848Z,6.87
2018-05-17T05:10:32.124Z,7.57
2018-05-17T05:12:58.473Z,5.82
2018-05-17T05:15:24.760Z,5.05
2018-05-17T05:17:51.796Z,6.22
2018-05-17T05:20:18.832Z,5.25
2018-05-17T05:22:45.133Z,4.57
2018-05-17T05:25:11.420Z,4.40
2018-05-17T05:27:37.721Z,6.25
2018-05-17T05:30:05.487Z,4.68
2018-05-17T05:32:31.793Z,4.55
2018-05-17T05:34:58.073Z,3.47
2018-05-17T05:37:25.380Z,4.32
2018-05-17T05:39:51.665Z,3.85
2018-05-17T05:42:17.973Z,3.28
2018-05-17T05:44:45.026Z,2.90
2018-05-17T05:47:12.054Z,3.03
2018-05-17T05:49:38.453Z,3.80
2018-05-17T05:52:04.692Z,3.70
2018-05-17T05:54:30.977Z,4.60
2018-05-17T05:56:57.277Z,3.00
2018-05-17T05:59:23.590Z,3.30
2018-05-17T06:01:49.905Z,3.40
2018-05-17T06:04:16.176Z,3.67
2018-05-17T06:06:43.204Z,3.37
2018-05-17T06:09:09.508Z,2.80
2018-05-17T06:11:35.800Z,3.57
2018-05-17T06:14:02.110Z,3.00
2018-05-17T06:16:29.140Z,3.08
2018-05-17T06:18:55.453Z,2.80
2018-05-17T06:21:21.748Z,3.57
2018-05-17T06:23:49.090Z,3.40
2018-05-17T06:26:16.136Z,2.63
2018-05-17T06:28:43.140Z,4.20
2018-05-17T06:31:09.413Z,3.28
2018-05-17T06:33:36.496Z,3.20
2018-05-17T06:36:02.802Z,3.70
2018-05-17T06:38:29.092Z,3.00
2018-05-17T06:40:55.393Z,3.40
2018-05-17T06:43:21.681Z,3.60
2018-05-17T06:45:48.744Z,2.67
2018-05-17T06:48:15.040Z,3.20
2018-05-17T06:50:41.324Z,3.20
2018-05-17T06:53:07.629Z,2.57
2018-05-17T06:55:33.948Z,2.13
2018-05-17T06:58:00.970Z,2.60
2018-05-17T07:00:27.307Z,2.90
2018-05-17T07:02:53.583Z,2.67
2018-05-17T07:05:19.891Z,2.80
2018-05-17T07:07:46.193Z,2.80
2018-05-17T07:10:12.503Z,2.80
2018-05-17T07:12:38.791Z,3.00
2018-05-17T07:15:05.102Z,2.60
2018-05-17T07:17:32.122Z,2.70
2018-05-17T07:19:58.416Z,2.90
2018-05-17T07:22:24.697Z,2.90
2018-05-17T07:24:52.785Z,2.97
2018-05-17T07:27:19.065Z,2.90
2018-05-17T07:29:45.458Z,2.57
2018-05-17T07:32:11.683Z,2.30
2018-05-17T07:34:37.990Z,2.90
2018-05-17T07:37:05.025Z,2.80
2018-05-17T07:39:31.326Z,3.17
2018-05-17T07:41:57.612Z,2.80
2018-05-17T07:44:23.956Z,2.67
2018-05-17T07:46:50.336Z,3.00
2018-05-17T07:49:17.296Z,2.70
2018-05-17T07:51:43.575Z,3.27
2018-05-17T07:54:09.861Z,2.50
2018-05-17T07:56:36.873Z,2.80
2018-05-17T07:59:03.201Z,2.50
2018-05-17T08:01:29.491Z,3.13
2018-05-17T08:03:55.785Z,2.90
2018-05-17T08:06:22.075Z,2.13
2018-05-17T08:08:49.398Z,2.60
2018-05-17T08:11:15.679Z,2.80
2018-05-17T08:13:41.979Z,2.83
2018-05-17T08:16:08.268Z,2.90
2018-05-17T08:18:35.337Z,2.83
2018-05-17T08:21:01.608Z,2.50
2018-05-17T08:23:28.004Z,2.70
2018-05-17T08:25:54.228Z,3.00
2018-05-17T08:28:20.536Z,3.20
2018-05-17T08:30:47.569Z,2.97
2018-05-17T08:33:13.868Z,3.47
2018-05-17T08:35:40.166Z,3.10
2018-05-17T08:38:06.475Z,2.47
2018-05-17T08:40:33.522Z,2.43
2018-05-17T08:43:00.557Z,2.43
2018-05-17T08:45:26.851Z,2.70
2018-05-17T08:47:53.154Z,2.93
2018-05-17T08:50:19.445Z,2.80
2018-05-17T08:52:45.741Z,2.87
2018-05-17T08:55:12.025Z,2.90
2018-05-17T08:57:39.057Z,2.90
2018-05-17T09:00:05.369Z,3.10
2018-05-17T09:02:31.674Z,3.20
2018-05-17T09:04:57.969Z,3.17
2018-05-17T09:07:25.013Z,2.77
2018-05-17T09:09:52.034Z,3.27
2018-05-17T09:12:18.332Z,2.90
2018-05-17T09:14:44.613Z,4.17
2018-05-17T09:17:11.669Z,3.00
2018-05-17T09:19:38.689Z,2.70
2018-05-17T09:22:04.989Z,3.30
2018-05-17T09:24:31.265Z,3.27
2018-05-17T09:26:58.289Z,2.87
2018-05-17T09:29:24.581Z,3.30
2018-05-17T09:31:50.900Z,3.07
2018-05-17T09:34:17.176Z,4.30
2018-05-17T09:36:43.489Z,4.80
2018-05-17T09:39:09.770Z,3.97
2018-05-17T09:41:36.801Z,4.60
2018-05-17T09:44:03.823Z,3.73
2018-05-17T09:46:30.137Z,4.73
2018-05-17T09:48:56.416Z,4.90
2018-05-17T09:51:23.474Z,4.87
2018-05-17T09:53:50.766Z,4.90
2018-05-17T09:56:17.065Z,3.90
2018-05-17T09:58:43.341Z,4.03
2018-05-17T10:01:09.656Z,4.70
2018-05-17T10:03:35.939Z,4.40
2018-05-17T10:06:02.993Z,4.60
2018-05-17T10:08:30.017Z,3.60
2018-05-17T10:10:56.309Z,3.50
2018-05-17T10:13:22.592Z,3.90
2018-05-17T10:15:49.629Z,3.80
2018-05-17T10:18:16.653Z,3.80
2018-05-17T10:20:42.947Z,5.37
2018-05-17T10:23:09.323Z,4.20
2018-05-17T10:25:35.581Z,4.20
2018-05-17T10:28:01.873Z,5.50
2018-05-17T10:30:28.165Z,3.80
2018-05-17T10:32:54.461Z,4.37
2018-05-17T10:35:22.556Z,4.70
2018-05-17T10:37:48.841Z,4.27
2018-05-17T10:40:15.139Z,4.07
2018-05-17T10:42:41.441Z,4.20
2018-05-17T10:45:07.741Z,4.20
2018-05-17T10:47:34.045Z,4.07
2018-05-17T10:50:00.327Z,4.17
2018-05-17T10:52:26.628Z,5.07
2018-05-17T10:54:53.935Z,4.90
2018-05-17T10:57:20.248Z,5.60
2018-05-17T10:59:47.525Z,4.90
2018-05-17T11:02:14.834Z,4.50
2018-05-17T11:04:42.872Z,5.50
2018-05-17T11:07:09.185Z,5.33
2018-05-17T11:09:36.468Z,5.33
2018-05-17T11:12:02.800Z,4.63
2018-05-17T11:14:29.081Z,5.37
2018-05-17T11:16:56.409Z,5.27
2018-05-17T11:19:23.521Z,5.10
2018-05-17T11:21:49.826Z,5.53
2018-05-17T11:24:16.113Z,5.27
2018-05-17T11:26:43.152Z,6.03
2018-05-17T11:29:10.165Z,4.53
2018-05-17T11:31:36.457Z,4.70
2018-05-17T11:34:02.737Z,5.20
2018-05-17T11:36:29.038Z,4.90
2018-05-17T11:38:55.320Z,4.73
2018-05-17T11:41:22.360Z,5.23
2018-05-17T11:43:49.384Z,4.53
2018-05-17T11:46:15.700Z,4.93
2018-05-17T11:48:41.981Z,4.30
2018-05-17T11:51:09.027Z,4.70
2018-05-17T11:53:36.056Z,5.10
2018-05-17T11:56:03.113Z,5.07
2018-05-17T11:58:30.145Z,4.57
2018-05-17T12:00:56.445Z,4.30
2018-05-17T12:03:22.720Z,4.40
2018-05-17T12:05:49.765Z,3.30
2018-05-17T12:08:16.777Z,3.23
2018-05-17T12:10:43.089Z,3.20
2018-05-17T12:13:09.356Z,3.13
2018-05-17T12:15:35.661Z,3.33
2018-05-17T12:18:01.953Z,3.00
2018-05-17T12:20:28.254Z,3.30
2018-05-17T12:22:55.336Z,3.27
2018-05-17T12:25:21.606Z,2.80
2018-05-17T12:27:48.893Z,8.87
2018-05-17T12:30:15.948Z,4.93
2018-05-17T12:32:42.981Z,3.40
2018-05-17T12:35:11.037Z,3.10
2018-05-17T12:37:37.309Z,3.70
2018-05-17T12:40:03.625Z,3.50
2018-05-17T12:42:30.641Z,3.70
2018-05-17T12:44:56.947Z,4.07
2018-05-17T12:47:23.365Z,3.70
2018-05-17T12:49:49.664Z,5.03
2018-05-17T12:52:16.690Z,4.60
2018-05-17T12:54:43.729Z,5.20
2018-05-17T12:57:10.002Z,4.20
2018-05-17T12:59:36.297Z,5.00
2018-05-17T13:02:02.587Z,4.70
2018-05-17T13:04:28.888Z,4.80
2018-05-17T13:06:55.259Z,4.37
2018-05-17T13:09:21.518Z,5.20
2018-05-17T13:11:47.801Z,5.13
2018-05-17T13:14:14.117Z,4.60
2018-05-17T13:16:40.401Z,4.57
2018-05-17T13:19:06.696Z,5.00
2018-05-17T13:21:32.984Z,4.40
2018-05-17T13:24:00.021Z,4.47
2018-05-17T13:26:27.046Z,4.93
2018-05-17T13:28:53.353Z,3.93
2018-05-17T13:31:19.621Z,3.90
2018-05-17T13:33:46.665Z,4.30
2018-05-17T13:36:12.948Z,4.27
2018-05-17T13:38:39.250Z,3.73
2018-05-17T13:41:05.528Z,4.20
2018-05-17T13:43:31.853Z,4.00
2018-05-17T13:45:58.139Z,4.30
2018-05-17T13:48:24.442Z,4.60
2018-05-17T13:50:50.732Z,4.30
2018-05-17T13:53:17.041Z,4.60
2018-05-17T13:55:43.328Z,4.57
2018-05-17T13:58:09.620Z,4.87
2018-05-17T14:00:35.920Z,4.53
2018-05-17T14:03:02.220Z,5.33
2018-05-17T14:05:28.504Z,5.53
2018-05-17T14:07:54.817Z,5.80
2018-05-17T14:10:21.088Z,2.60
2018-05-17T14:12:47.376Z,1.80
2018-05-17T14:15:13.706Z,1.83
2018-05-17T14:17:40.725Z,1.67
2018-05-17T14:20:07.745Z,2.27
2018-05-17T14:22:34.056Z,2.13
2018-05-17T14:25:00.345Z,1.90
2018-05-17T14:27:27.381Z,2.90
2018-05-17T14:29:53.681Z,2.70
2018-05-17T14:32:19.990Z,3.27
2018-05-17T14:34:46.261Z,3.10
2018-05-17T14:37:12.576Z,2.83
2018-05-17T14:39:38.860Z,2.63
2018-05-17T14:42:05.181Z,3.33
2018-05-17T14:44:31.462Z,3.20
2018-05-17T14:46:58.772Z,3.37
2018-05-17T14:49:25.058Z,3.43
2018-05-17T14:51:51.357Z,3.40
2018-05-17T14:54:17.645Z,3.10
2018-05-17T14:56:43.972Z,3.90
2018-05-17T14:59:11.001Z,3.80
2018-05-17T15:01:38.113Z,3.57
2018-05-17T15:04:04.405Z,4.03
2018-05-17T15:06:30.734Z,3.47
2018-05-17T15:08:57.016Z,4.10
2018-05-17T15:11:23.382Z,4.30
2018-05-17T15:13:49.733Z,3.40
2018-05-17T15:16:16.737Z,3.83
2018-05-17T15:18:44.029Z,3.90
2018-05-17T15:21:10.337Z,5.07
2018-05-17T15:23:37.361Z,3.80
2018-05-17T15:26:03.664Z,3.40
2018-05-17T15:28:29.953Z,3.63
2018-05-17T15:30:57.957Z,4.17
2018-05-17T15:33:24.287Z,4.33
2018-05-17T15:35:50.623Z,4.63
2018-05-17T15:38:16.903Z,5.63
2018-05-17T15:40:43.945Z,4.60
2018-05-17T15:43:10.225Z,6.07
2018-05-17T15:45:36.527Z,7.20
2018-05-17T15:48:02.828Z,7.87
2018-05-17T15:50:29.141Z,7.83
2018-05-17T15:52:55.424Z,7.10
2018-05-17T15:55:21.721Z,7.70
2018-05-17T15:57:48.002Z,7.70
2018-05-17T16:00:14.305Z,8.50
2018-05-17T16:02:40.601Z,8.60
2018-05-17T16:05:06.922Z,9.43
2018-05-17T16:07:33.224Z,10.60
2018-05-17T16:09:59.566Z,7.93
2018-05-17T16:12:25.865Z,8.20
2018-05-17T16:14:52.211Z,6.50
2018-05-17T16:17:18.480Z,6.83
2018-05-17T16:19:44.756Z,6.40
2018-05-17T16:22:11.049Z,7.10
2018-05-17T16:24:37.336Z,5.30
2018-05-17T16:27:03.648Z,7.00
2018-05-17T16:29:29.933Z,6.67
2018-05-17T16:31:56.227Z,6.70
2018-05-17T16:34:22.506Z,6.60
2018-05-17T16:36:48.820Z,7.00
2018-05-17T16:39:16.594Z,6.97
2018-05-17T16:41:42.893Z,6.87
2018-05-17T16:44:09.188Z,7.77
2018-05-17T16:46:35.476Z,8.37
2018-05-17T16:49:01.758Z,10.03
2018-05-17T16:51:28.045Z,26.60
2018-05-17T16:53:54.317Z,10.10
2018-05-17T16:56:21.668Z,9.50
2018-05-17T16:58:48.058Z,8.53
2018-05-17T17:01:14.289Z,9.10
2018-05-17T17:03:40.560Z,7.77
2018-05-17T17:06:06.871Z,9.10
2018-05-17T17:08:33.914Z,9.77
2018-05-17T17:11:00.944Z,8.60
2018-05-17T17:13:27.217Z,9.70
2018-05-17T17:15:53.526Z,11.00
2018-05-17T17:18:19.821Z,10.10
2018-05-17T17:20:46.120Z,10.73
2018-05-17T17:23:12.401Z,9.67
2018-05-17T17:25:39.432Z,8.10
2018-05-17T17:28:05.725Z,7.13
2018-05-17T17:30:33.073Z,7.63
2018-05-17T17:32:59.348Z,7.07
2018-05-17T17:35:25.648Z,15.17
2018-05-17T17:37:51.934Z,15.47
2018-05-17T17:40:19.033Z,13.60
2018-05-17T17:42:45.320Z,10.20
2018-05-17T17:45:12.349Z,11.70
2018-05-17T17:47:38.656Z,8.23
2018-05-17T17:50:04.969Z,8.83
2018-05-17T17:52:31.253Z,8.30
2018-05-17T17:54:58.305Z,9.67
2018-05-17T17:57:24.589Z,9.37
2018-05-17T17:59:50.893Z,9.50
2018-05-17T18:02:17.176Z,9.10
2018-05-17T18:04:44.225Z,8.33
2018-05-17T18:07:11.249Z,9.20
2018-05-17T18:09:37.656Z,9.20
2018-05-17T18:12:03.959Z,10.23
2018-05-17T18:14:30.265Z,10.70
2018-05-17T18:16:57.285Z,10.03
2018-05-17T18:19:25.290Z,10.77
2018-05-17T18:22:00.313Z,10.90
2018-05-17T18:24:27.372Z,10.23
2018-05-17T18:26:54.395Z,10.17
2018-05-17T18:29:20.696Z,11.53
2018-05-17T18:31:46.992Z,12.50
2018-05-17T18:34:13.304Z,13.07
2018-05-17T18:36:39.641Z,11.40
2018-05-17T18:39:05.984Z,12.30
2018-05-17T18:41:32.279Z,13.33
2018-05-17T18:43:59.348Z,14.30
2018-05-17T18:46:25.635Z,14.77
2018-05-17T18:48:51.991Z,16.57
2018-05-17T18:51:18.291Z,17.60
2018-05-17T18:53:44.604Z,18.53
2018-05-17T18:56:10.896Z,19.60
2018-05-17T18:58:37.199Z,19.23
2018-05-17T19:01:03.499Z,20.07
2018-05-17T19:03:29.831Z,18.40
2018-05-17T19:05:56.108Z,17.67
2018-05-17T19:08:23.156Z,13.00
2018-05-17T19:10:49.724Z,12.17
2018-05-17T19:13:16.040Z,12.27
2018-05-17T19:15:43.481Z,12.70
2018-05-17T19:18:09.876Z,11.57
2018-05-17T19:20:36.151Z,13.00
2018-05-17T19:23:03.436Z,13.53
2018-05-17T19:25:29.749Z,13.80
2018-05-17T19:27:56.043Z,12.73
2018-05-17T19:30:23.065Z,15.93
2018-05-17T19:32:49.359Z,18.97
2018-05-17T19:35:15.625Z,29.30
2018-05-17T19:37:43.017Z,30.07
2018-05-17T19:40:09.287Z,29.07
2018-05-17T19:42:35.580Z,36.60
2018-05-17T19:45:01.882Z,37.03
2018-05-17T19:47:28.916Z,37.20
2018-05-17T19:49:55.213Z,39.87
2018-05-17T19:52:21.492Z,36.67
2018-05-17T19:54:49.517Z,41.60
2018-05-17T19:57:15.840Z,38.90
2018-05-17T19:59:42.127Z,40.27
2018-05-17T20:02:09.167Z,38.07
2018-05-17T20:04:36.207Z,40.57
2018-05-17T20:07:03.520Z,38.47
2018-05-17T20:09:29.824Z,38.60
2018-05-17T20:11:56.136Z,43.53
2018-05-17T20:14:23.143Z,44.00
2018-05-17T20:16:49.511Z,40.97
2018-05-17T20:19:16.552Z,42.10
2018-05-17T20:21:43.616Z,39.10
2018-05-17T20:24:09.937Z,41.17
2018-05-17T20:26:36.983Z,45.03
2018-05-17T20:29:04.032Z,42.83
2018-05-17T20:31:30.344Z,44.57
2018-05-17T20:33:57.382Z,43.87
2018-05-17T20:36:23.671Z,45.73
2018-05-17T20:38:50.024Z,47.23
2018-05-17T20:41:16.316Z,49.00
2018-05-17T20:43:42.591Z,48.10
2018-05-17T20:46:08.915Z,46.20
2018-05-17T20:48:35.204Z,50.00
2018-05-17T20:51:01.515Z,50.83
2018-05-17T20:53:28.528Z,70.43
2018-05-17T20:55:54.841Z,47.50
2018-05-17T20:58:21.122Z,55.00
2018-05-17T21:00:47.419Z,48.13
2018-05-17T21:03:13.747Z,59.37
2018-05-17T21:05:40.092Z,47.33
2018-05-17T21:08:07.124Z,52.20
2018-05-17T21:10:33.431Z,48.70
2018-05-17T21:12:59.730Z,53.43
2018-05-17T21:15:26.008Z,54.05
2018-05-17T21:17:52.318Z,50.17
2018-05-17T21:20:18.619Z,50.43
2018-05-17T21:22:44.903Z,45.77
2018-05-17T21:25:11.236Z,47.50
2018-05-17T21:27:37.528Z,49.40
2018-05-17T21:30:03.845Z,51.50
2018-05-17T21:32:30.155Z,50.90
2018-05-17T21:34:56.441Z,47.90
2018-05-17T21:37:22.816Z,45.60
2018-05-17T21:39:49.108Z,49.20
2018-05-17T21:42:15.400Z,45.23
2018-05-17T21:44:41.697Z,49.37
2018-05-17T21:47:08.744Z,44.30
2018-05-17T21:49:35.785Z,47.53
2018-05-17T21:52:02.831Z,47.80
2018-05-17T21:54:29.970Z,46.50
2018-05-17T21:56:56.274Z,45.07
2018-05-17T22:01:51.748Z,50.33
2018-05-17T22:04:18.046Z,46.37
2018-05-17T22:06:44.335Z,48.23
2018-05-17T22:09:10.630Z,48.10
2018-05-17T22:11:37.656Z,44.70
2018-05-17T22:14:03.988Z,50.73
2018-05-17T22:16:30.280Z,49.20
2018-05-17T22:18:56.580Z,45.42
2018-05-17T22:21:22.939Z,53.60
2018-05-17T22:23:49.235Z,47.27
2018-05-17T22:26:15.537Z,49.10
2018-05-17T22:28:43.648Z,48.00
2018-05-17T22:31:09.948Z,47.85
2018-05-17T22:33:37.020Z,50.63
2018-05-17T22:36:03.302Z,49.60
2018-05-17T22:38:29.606Z,47.87
2018-05-17T22:40:55.912Z,48.70
2018-05-17T22:43:22.212Z,50.22
2018-05-17T22:45:49.265Z,48.28
2018-05-17T22:48:15.557Z,51.65
2018-05-17T22:50:41.868Z,48.95
2018-05-17T22:53:08.197Z,49.17
2018-05-17T22:55:34.472Z,45.83
2018-05-17T22:58:13.964Z,46.97
2018-05-17T23:00:40.254Z,48.37
2018-05-17T23:03:08.315Z,46.40
2018-05-17T23:05:35.376Z,49.77
2018-05-17T23:08:01.670Z,47.67
2018-05-17T23:10:27.997Z,50.30
2018-05-17T23:12:54.292Z,47.00
2018-05-17T23:15:20.612Z,45.00
2018-05-17T23:17:46.886Z,48.97
2018-05-17T23:20:13.178Z,45.70
2018-05-17T23:22:39.487Z,50.20
2018-05-17T23:25:07.588Z,48.47
2018-05-17T23:27:33.983Z,45.45
2018-05-17T23:30:01.063Z,47.00
2018-05-17T23:32:27.373Z,50.40
2018-05-17T23:34:53.696Z,46.37
2018-05-17T23:37:20.949Z,48.07
2018-05-17T23:39:47.258Z,44.87
2018-05-17T23:42:14.303Z,43.37
2018-05-17T23:44:41.336Z,45.63
2018-05-17T23:47:07.654Z,47.37
2018-05-17T23:49:33.955Z,44.97
2018-05-17T23:52:00.288Z,47.65
2018-05-17T23:54:26.584Z,45.30
2018-05-17T23:56:53.613Z,48.00
2018-05-17T23:59:19.944Z,45.47
